createdAt,value
2018-05-26T00:00:23.556Z,994.27
2018-05-26T00:01:23.695Z,994.29
2018-05-26T00:02:23.838Z,994.28
2018-05-26T00:03:23.974Z,994.28
2018-05-26T00:04:24.120Z,994.27
2018-05-26T00:05:24.267Z,994.27
2018-05-26T00:06:24.454Z,994.24
2018-05-26T00:07:24.665Z,994.26
2018-05-26T00:08:24.776Z,994.22
2018-05-26T00:09:24.790Z,994.25
2018-05-26T00:10:24.927Z,994.23
2018-05-26T00:11:25.107Z,994.24
2018-05-26T00:12:25.312Z,994.26
2018-05-26T00:13:25.421Z,994.25
2018-05-26T00:14:25.442Z,994.25
2018-05-26T00:15:25.641Z,994.25
2018-05-26T00:16:25.654Z,994.30
2018-05-26T00:17:25.797Z,994.25
2018-05-26T00:18:25.968Z,994.26
2018-05-26T00:19:26.177Z,994.27
2018-05-26T00:20:26.295Z,994.28
2018-05-26T00:21:26.401Z,994.24
2018-05-26T00:22:26.504Z,994.29
2018-05-26T00:23:26.522Z,994.28
2018-05-26T00:24:26.728Z,994.25
2018-05-26T00:25:26.835Z,994.26
2018-05-26T00:26:26.941Z,994.22
2018-05-26T00:27:27.056Z,994.24
2018-05-26T00:28:27.071Z,994.20
2018-05-26T00:29:27.206Z,994.22
2018-05-26T00:30:27.379Z,994.23
2018-05-26T00:31:27.521Z,994.20
2018-05-26T00:32:27.658Z,994.23
2018-05-26T00:33:27.797Z,994.19
2018-05-26T00:34:27.943Z,994.21
2018-05-26T00:35:28.131Z,994.20
2018-05-26T00:36:28.334Z,994.23
2018-05-26T00:37:28.447Z,994.22
2018-05-26T00:38:28.559Z,994.24
2018-05-26T00:39:28.579Z,994.25
2018-05-26T00:40:28.716Z,994.23
2018-05-26T00:41:28.848Z,994.21
2018-05-26T00:42:28.993Z,994.23
2018-05-26T00:43:29.209Z,994.24
2018-05-26T00:44:29.309Z,994.24
2018-05-26T00:45:29.424Z,994.22
2018-05-26T00:46:29.446Z,994.27
2018-05-26T00:47:29.639Z,994.28
2018-05-26T00:48:29.856Z,994.27
2018-05-26T00:49:29.961Z,994.22
2018-05-26T00:50:30.068Z,994.25
2018-05-26T00:51:30.179Z,994.28
2018-05-26T00:52:30.193Z,994.29
2018-05-26T00:53:30.337Z,994.31
2018-05-26T00:54:30.505Z,994.35
2018-05-26T00:55:30.718Z,994.35
2018-05-26T00:56:30.828Z,994.32
2018-05-26T00:57:30.938Z,994.35
2018-05-26T00:58:30.951Z,994.36
2018-05-26T00:59:31.161Z,994.36
2018-05-26T01:00:31.273Z,994.34
2018-05-26T01:01:31.289Z,994.36
2018-05-26T01:02:31.426Z,994.30
2018-05-26T01:03:31.586Z,994.36
2018-05-26T01:04:31.800Z,994.34
2018-05-26T01:05:31.909Z,994.39
2018-05-26T01:06:32.019Z,994.36
2018-05-26T01:07:32.128Z,994.39
2018-05-26T01:08:32.236Z,994.37
2018-05-26T01:09:32.350Z,994.38
2018-05-26T01:10:32.362Z,994.35
2018-05-26T01:11:32.563Z,994.37
2018-05-26T01:12:32.577Z,994.33
2018-05-26T01:13:32.783Z,994.35
2018-05-26T01:14:32.888Z,994.38
2018-05-26T01:15:32.999Z,994.39
2018-05-26T01:16:33.137Z,994.32
2018-05-26T01:17:33.218Z,994.30
2018-05-26T01:18:33.236Z,994.34
2018-05-26T01:19:33.435Z,994.34
2018-05-26T01:20:33.650Z,994.35
2018-05-26T01:21:33.797Z,994.33
2018-05-26T01:22:33.865Z,994.36
2018-05-26T01:23:34.003Z,994.37
2018-05-26T01:24:34.195Z,994.38
2018-05-26T01:25:34.398Z,994.39
2018-05-26T01:26:34.505Z,994.36
2018-05-26T01:27:34.617Z,994.41
2018-05-26T01:28:34.724Z,994.37
2018-05-26T01:29:34.745Z,994.43
2018-05-26T01:30:34.944Z,994.45
2018-05-26T01:31:34.961Z,994.45
2018-05-26T01:32:35.100Z,994.46
2018-05-26T01:33:35.273Z,994.46
2018-05-26T01:34:35.483Z,994.48
2018-05-26T01:35:35.497Z,994.47
2018-05-26T01:36:35.703Z,994.49
2018-05-26T01:37:35.811Z,994.49
2018-05-26T01:38:35.974Z,994.49
2018-05-26T01:39:35.984Z,994.52
2018-05-26T01:40:36.143Z,994.55
2018-05-26T01:41:36.281Z,994.54
2018-05-26T01:42:36.458Z,994.55
2018-05-26T01:43:36.670Z,994.58
2018-05-26T01:44:36.778Z,994.58
2018-05-26T01:45:36.890Z,994.58
2018-05-26T01:46:36.999Z,994.55
2018-05-26T01:47:37.008Z,994.52
2018-05-26T01:48:37.149Z,994.50
2018-05-26T01:49:37.288Z,994.48
2018-05-26T01:50:37.532Z,994.47
2018-05-26T01:51:37.641Z,994.44
2018-05-26T01:52:37.753Z,994.48
2018-05-26T01:53:37.764Z,994.46
2018-05-26T01:54:37.973Z,994.44
2018-05-26T01:55:38.740Z,994.46
2018-05-26T01:56:38.185Z,994.43
2018-05-26T01:57:38.296Z,994.45
2018-05-26T01:58:38.408Z,994.40
2018-05-26T01:59:38.550Z,994.39
2018-05-26T02:00:38.632Z,994.41
2018-05-26T02:01:38.737Z,994.41
2018-05-26T02:02:38.844Z,994.39
2018-05-26T02:03:38.952Z,994.35
2018-05-26T02:04:38.972Z,994.37
2018-05-26T02:05:39.114Z,994.32
2018-05-26T02:06:39.294Z,994.31
2018-05-26T02:07:39.495Z,994.33
2018-05-26T02:08:39.602Z,994.34
2018-05-26T02:09:39.712Z,994.33
2018-05-26T02:10:39.820Z,994.34
2018-05-26T02:11:39.876Z,994.35
2018-05-26T02:12:40.001Z,994.29
2018-05-26T02:13:40.251Z,994.34
2018-05-26T02:14:40.362Z,994.30
2018-05-26T02:15:40.462Z,994.36
2018-05-26T02:16:40.480Z,994.35
2018-05-26T02:17:40.682Z,994.39
2018-05-26T02:18:40.792Z,994.39
2018-05-26T02:19:40.905Z,994.36
2018-05-26T02:20:41.011Z,994.33
2018-05-26T02:21:41.124Z,994.34
2018-05-26T02:22:41.134Z,994.36
2018-05-26T02:23:41.334Z,994.36
2018-05-26T02:24:41.551Z,994.38
2018-05-26T02:25:41.658Z,994.38
2018-05-26T02:26:41.668Z,994.34
2018-05-26T02:27:41.876Z,994.36
2018-05-26T02:28:41.892Z,994.31
2018-05-26T02:29:42.031Z,994.33
2018-05-26T02:30:42.203Z,994.34
2018-05-26T02:31:42.343Z,994.36
2018-05-26T02:32:42.522Z,994.36
2018-05-26T02:33:42.741Z,994.33
2018-05-26T02:34:42.845Z,994.30
2018-05-26T02:35:42.951Z,994.34
2018-05-26T02:36:43.060Z,994.34
2018-05-26T02:37:43.075Z,994.33
2018-05-26T02:38:43.282Z,994.32
2018-05-26T02:39:43.299Z,994.35
2018-05-26T02:40:43.435Z,994.35
2018-05-26T02:41:43.608Z,994.38
2018-05-26T02:42:43.787Z,994.41
2018-05-26T02:43:44.033Z,994.37
2018-05-26T02:44:44.137Z,994.40
2018-05-26T02:45:44.250Z,994.37
2018-05-26T02:46:44.272Z,994.40
2018-05-26T02:47:44.493Z,994.44
2018-05-26T02:48:44.509Z,994.45
2018-05-26T02:49:44.650Z,994.48
2018-05-26T02:50:44.788Z,994.49
2018-05-26T02:51:44.929Z,994.46
2018-05-26T02:52:45.117Z,994.44
2018-05-26T02:53:45.259Z,994.49
2018-05-26T02:54:45.395Z,994.46
2018-05-26T02:55:45.646Z,994.48
2018-05-26T02:56:45.665Z,994.44
2018-05-26T02:57:45.801Z,994.49
2018-05-26T02:58:45.974Z,994.49
2018-05-26T02:59:46.187Z,994.50
2018-05-26T03:00:46.292Z,994.49
2018-05-26T03:01:46.406Z,994.52
2018-05-26T03:02:46.514Z,994.54
2018-05-26T03:03:46.537Z,994.55
2018-05-26T03:04:46.676Z,994.53
2018-05-26T03:05:46.803Z,994.53
2018-05-26T03:06:47.052Z,994.55
2018-05-26T03:07:47.202Z,994.60
2018-05-26T03:08:47.271Z,994.60
2018-05-26T03:09:47.376Z,994.63
2018-05-26T03:10:47.398Z,994.62
2018-05-26T03:11:47.539Z,994.63
2018-05-26T03:12:47.701Z,994.64
2018-05-26T03:13:47.846Z,994.62
2018-05-26T03:14:48.021Z,994.64
2018-05-26T03:15:48.159Z,994.64
2018-05-26T03:16:48.300Z,994.67
2018-05-26T03:17:48.553Z,994.62
2018-05-26T03:18:48.672Z,994.60
2018-05-26T03:19:48.784Z,994.57
2018-05-26T03:20:48.885Z,994.59
2018-05-26T03:21:48.900Z,994.63
2018-05-26T03:22:49.099Z,994.63
2018-05-26T03:23:49.113Z,994.64
2018-05-26T03:24:49.258Z,994.63
2018-05-26T03:25:49.430Z,994.67
2018-05-26T03:26:49.569Z,994.67
2018-05-26T03:27:49.750Z,994.68
2018-05-26T03:28:49.926Z,994.68
2018-05-26T03:29:50.172Z,994.69
2018-05-26T03:30:50.281Z,994.72
2018-05-26T03:31:50.757Z,994.70
2018-05-26T03:32:50.504Z,994.67
2018-05-26T03:33:50.521Z,994.67
2018-05-26T03:34:50.662Z,994.67
2018-05-26T03:35:50.827Z,994.67
2018-05-26T03:36:51.035Z,994.69
2018-05-26T03:37:51.046Z,994.68
2018-05-26T03:38:51.194Z,994.69
2018-05-26T03:39:51.330Z,994.68
2018-05-26T03:40:51.611Z,994.68
2018-05-26T03:41:51.684Z,994.68
2018-05-26T03:42:51.895Z,994.70
2018-05-26T03:43:52.757Z,994.71
2018-05-26T03:44:52.054Z,994.71
2018-05-26T03:45:52.228Z,994.72
2018-05-26T03:46:52.368Z,994.70
2018-05-26T03:47:52.497Z,994.72
2018-05-26T03:48:52.646Z,994.71
2018-05-26T03:49:52.869Z,994.68
2018-05-26T03:50:52.882Z,994.68
2018-05-26T03:51:53.083Z,994.70
2018-05-26T03:52:53.093Z,994.72
2018-05-26T03:53:53.235Z,994.72
2018-05-26T03:54:53.414Z,994.72
2018-05-26T03:55:53.548Z,994.74
2018-05-26T03:56:53.732Z,994.75
2018-05-26T03:57:53.953Z,994.73
2018-05-26T03:58:54.049Z,994.74
2018-05-26T03:59:54.162Z,994.72
2018-05-26T04:00:54.180Z,994.73
2018-05-26T04:01:54.379Z,994.73
2018-05-26T04:02:54.516Z,994.69
2018-05-26T04:03:54.658Z,994.71
2018-05-26T04:04:54.911Z,994.68
2018-05-26T04:05:55.070Z,994.71
2018-05-26T04:06:55.132Z,994.71
2018-05-26T04:07:55.237Z,994.74
2018-05-26T04:08:55.350Z,994.73
2018-05-26T04:09:55.453Z,994.70
2018-05-26T04:10:55.562Z,994.72
2018-05-26T04:11:55.586Z,994.66
2018-05-26T04:12:55.729Z,994.68
2018-05-26T04:13:55.896Z,994.62
2018-05-26T04:14:56.106Z,994.62
2018-05-26T04:15:56.211Z,994.65
2018-05-26T04:16:56.222Z,994.64
2018-05-26T04:17:56.428Z,994.63
2018-05-26T04:18:56.439Z,994.66
2018-05-26T04:19:56.649Z,994.68
2018-05-26T04:20:56.756Z,994.68
2018-05-26T04:21:56.865Z,994.71
2018-05-26T04:22:56.977Z,994.69
2018-05-26T04:23:57.086Z,994.67
2018-05-26T04:24:57.192Z,994.69
2018-05-26T04:25:57.209Z,994.71
2018-05-26T04:26:57.353Z,994.72
2018-05-26T04:27:57.525Z,994.74
2018-05-26T04:28:57.747Z,994.77
2018-05-26T04:29:58.865Z,994.78
2018-05-26T04:30:57.955Z,994.78
2018-05-26T04:31:58.057Z,994.79
2018-05-26T04:32:58.068Z,994.80
2018-05-26T04:33:58.278Z,994.81
2018-05-26T04:34:58.383Z,994.79
2018-05-26T04:35:58.497Z,994.77
2018-05-26T04:36:58.610Z,994.79
2018-05-26T04:37:58.716Z,994.79
2018-05-26T04:38:58.822Z,994.79
2018-05-26T04:39:58.934Z,994.82
2018-05-26T04:40:59.041Z,994.83
2018-05-26T04:41:59.148Z,994.81
2018-05-26T04:42:59.254Z,994.87
2018-05-26T04:43:59.368Z,994.88
2018-05-26T04:44:59.391Z,994.91
2018-05-26T04:46:00.265Z,994.91
2018-05-26T04:46:59.687Z,994.91
2018-05-26T04:47:59.901Z,994.94
2018-05-26T04:48:59.916Z,994.95
2018-05-26T04:50:00.066Z,994.95
2018-05-26T04:51:00.272Z,995.00
2018-05-26T04:52:00.311Z,994.96
2018-05-26T04:53:00.453Z,994.96
2018-05-26T04:54:00.662Z,994.98
2018-05-26T04:55:00.679Z,994.99
2018-05-26T04:56:00.881Z,995.05
2018-05-26T04:57:00.991Z,995.02
2018-05-26T04:58:01.099Z,995.01
2018-05-26T04:59:01.225Z,995.02
2018-05-26T05:00:01.228Z,995.04
2018-05-26T05:01:01.425Z,995.02
2018-05-26T05:02:01.636Z,995.03
2018-05-26T05:03:01.650Z,995.08
2018-05-26T05:04:01.857Z,995.07
2018-05-26T05:05:01.969Z,995.09
2018-05-26T05:06:02.073Z,995.12
2018-05-26T05:07:02.191Z,995.12
2018-05-26T05:08:02.291Z,995.10
2018-05-26T05:09:02.400Z,995.12
2018-05-26T05:10:02.514Z,995.11
2018-05-26T05:11:02.530Z,995.09
2018-05-26T05:12:02.668Z,995.09
2018-05-26T05:13:02.839Z,995.09
2018-05-26T05:14:02.980Z,995.10
2018-05-26T05:15:03.162Z,995.04
2018-05-26T05:16:03.407Z,995.06
2018-05-26T05:17:03.479Z,995.02
2018-05-26T05:18:03.591Z,995.04
2018-05-26T05:19:03.608Z,995.06
2018-05-26T05:20:03.751Z,995.03
2018-05-26T05:21:03.882Z,995.04
2018-05-26T05:22:04.160Z,995.10
2018-05-26T05:23:04.232Z,995.12
2018-05-26T05:24:04.255Z,995.14
2018-05-26T05:25:04.453Z,995.17
2018-05-26T05:26:04.477Z,995.17
2018-05-26T05:27:04.614Z,995.20
2018-05-26T05:28:04.752Z,995.26
2018-05-26T05:29:05.001Z,995.27
2018-05-26T05:30:05.009Z,995.28
2018-05-26T05:31:05.154Z,995.26
2018-05-26T05:32:05.322Z,995.25
2018-05-26T05:33:05.461Z,995.22
2018-05-26T05:34:05.641Z,995.23
2018-05-26T05:35:05.778Z,995.25
2018-05-26T05:36:06.010Z,995.23
2018-05-26T05:37:06.028Z,995.26
2018-05-26T05:38:06.162Z,995.28
2018-05-26T05:39:06.302Z,995.27
2018-05-26T05:40:06.499Z,995.28
2018-05-26T05:41:06.710Z,995.26
2018-05-26T05:42:06.729Z,995.26
2018-05-26T05:43:06.930Z,995.27
2018-05-26T05:44:07.053Z,995.27
2018-05-26T05:45:07.150Z,995.28
2018-05-26T05:46:07.164Z,995.29
2018-05-26T05:47:07.363Z,995.29
2018-05-26T05:48:07.472Z,995.27
2018-05-26T05:49:07.487Z,995.24
2018-05-26T05:50:07.696Z,995.26
2018-05-26T05:51:07.718Z,995.23
2018-05-26T05:52:07.914Z,995.29
2018-05-26T05:53:08.051Z,995.28
2018-05-26T05:54:08.196Z,995.33
2018-05-26T05:55:08.482Z,995.25
2018-05-26T05:56:08.491Z,995.26
2018-05-26T05:57:08.660Z,995.28
2018-05-26T05:58:08.873Z,995.32
2018-05-26T05:59:08.983Z,995.32
2018-05-26T06:00:08.995Z,995.34
2018-05-26T06:01:09.201Z,995.31
2018-05-26T06:02:09.309Z,995.31
2018-05-26T06:03:09.421Z,995.31
2018-05-26T06:04:09.433Z,995.28
2018-05-26T06:05:09.643Z,995.29
2018-05-26T06:06:09.749Z,995.25
2018-05-26T06:07:10.821Z,995.27
2018-05-26T06:08:09.858Z,995.27
2018-05-26T06:09:10.072Z,995.30
2018-05-26T06:10:10.087Z,995.29
2018-05-26T06:11:10.237Z,995.34
2018-05-26T06:12:10.399Z,995.38
2018-05-26T06:13:10.539Z,995.38
2018-05-26T06:14:10.718Z,995.40
2018-05-26T06:15:10.931Z,995.38
2018-05-26T06:16:10.938Z,995.39
2018-05-26T06:17:11.085Z,995.42
2018-05-26T06:18:11.221Z,995.37
2018-05-26T06:19:11.363Z,995.37
2018-05-26T06:20:11.581Z,995.41
2018-05-26T06:21:11.689Z,995.38
2018-05-26T06:22:11.698Z,995.39
2018-05-26T06:23:11.842Z,995.40
2018-05-26T06:24:11.981Z,995.43
2018-05-26T06:25:12.122Z,995.41
2018-05-26T06:26:12.257Z,995.42
2018-05-26T06:27:12.402Z,995.39
2018-05-26T06:28:12.539Z,995.45
2018-05-26T06:29:12.759Z,995.46
2018-05-26T06:30:12.781Z,995.44
2018-05-26T06:31:12.981Z,995.48
2018-05-26T06:32:12.995Z,995.44
2018-05-26T06:33:13.137Z,995.42
2018-05-26T06:34:13.284Z,995.43
2018-05-26T06:35:13.430Z,995.41
2018-05-26T06:36:13.634Z,995.39
2018-05-26T06:37:13.645Z,995.40
2018-05-26T06:38:13.856Z,995.38
2018-05-26T06:39:13.955Z,995.41
2018-05-26T06:40:13.978Z,995.37
2018-05-26T06:41:14.115Z,995.37
2018-05-26T06:42:14.266Z,995.40
2018-05-26T06:43:14.401Z,995.35
2018-05-26T06:44:14.539Z,995.36
2018-05-26T06:45:14.717Z,995.30
2018-05-26T06:46:14.930Z,995.34
2018-05-26T06:47:15.033Z,995.30
2018-05-26T06:48:15.048Z,995.35
2018-05-26T06:49:15.198Z,995.35
2018-05-26T06:50:15.367Z,995.37
2018-05-26T06:51:15.590Z,995.33
2018-05-26T06:52:15.681Z,995.35
2018-05-26T06:53:15.697Z,995.34
2018-05-26T06:54:15.902Z,995.34
2018-05-26T06:55:16.012Z,995.34
2018-05-26T06:56:16.115Z,995.36
2018-05-26T06:57:16.133Z,995.34
2018-05-26T06:58:16.337Z,995.35
2018-05-26T06:59:16.442Z,995.34
2018-05-26T07:00:16.506Z,995.38
2018-05-26T07:01:16.666Z,995.34
2018-05-26T07:02:16.774Z,995.39
2018-05-26T07:03:16.882Z,995.34
2018-05-26T07:04:17.159Z,995.32
2018-05-26T07:05:17.056Z,995.36
2018-05-26T07:06:17.322Z,995.35
2018-05-26T07:07:17.422Z,995.33
2018-05-26T07:08:17.533Z,995.31
2018-05-26T07:09:17.643Z,995.29
2018-05-26T07:10:17.679Z,995.29
2018-05-26T07:11:17.862Z,995.26
2018-05-26T07:12:18.110Z,995.26
2018-05-26T07:14:50.406Z,995.26
2018-05-26T07:15:50.555Z,995.24
2018-05-26T07:16:50.691Z,995.27
2018-05-26T07:17:50.843Z,995.28
2018-05-26T07:18:50.984Z,995.23
2018-05-26T07:19:51.120Z,995.26
2018-05-26T07:20:51.259Z,995.27
2018-05-26T07:21:51.384Z,995.27
2018-05-26T07:22:51.523Z,995.26
2018-05-26T07:23:51.667Z,995.28
2018-05-26T07:24:51.809Z,995.27
2018-05-26T07:25:51.949Z,995.28
2018-05-26T07:26:52.089Z,995.31
2018-05-26T07:27:52.280Z,995.28
2018-05-26T07:28:52.393Z,995.27
2018-05-26T07:29:52.538Z,995.27
2018-05-26T07:30:52.675Z,995.27
2018-05-26T07:31:52.816Z,995.25
2018-05-26T07:32:53.010Z,995.22
2018-05-26T07:33:53.038Z,995.24
2018-05-26T07:34:53.180Z,995.24
2018-05-26T07:35:53.322Z,995.23
2018-05-26T07:36:53.556Z,995.20
2018-05-26T07:37:53.662Z,995.22
2018-05-26T07:38:53.680Z,995.19
2018-05-26T07:39:53.825Z,995.20
2018-05-26T07:40:53.992Z,995.20
2018-05-26T07:41:54.129Z,995.20
2018-05-26T07:42:54.270Z,995.21
2018-05-26T07:43:54.524Z,995.19
2018-05-26T07:44:54.628Z,995.19
2018-05-26T07:45:54.644Z,995.14
2018-05-26T07:46:54.851Z,995.21
2018-05-26T07:47:54.961Z,995.21
2018-05-26T07:48:55.073Z,995.22
2018-05-26T07:49:55.089Z,995.23
2018-05-26T07:50:55.310Z,995.19
2018-05-26T07:51:55.497Z,995.20
2018-05-26T07:52:55.552Z,995.20
2018-05-26T07:53:55.749Z,995.22
2018-05-26T07:54:55.772Z,995.19
2018-05-26T07:55:55.938Z,995.15
2018-05-26T07:56:56.143Z,995.14
2018-05-26T07:57:56.183Z,995.16
2018-05-26T07:58:56.324Z,995.17
2018-05-26T07:59:56.577Z,995.17
2018-05-26T08:00:56.681Z,995.17
2018-05-26T08:01:56.755Z,995.16
2018-05-26T08:02:56.901Z,995.18
2018-05-26T08:03:57.044Z,995.16
2018-05-26T08:04:57.199Z,995.15
2018-05-26T08:05:57.444Z,995.15
2018-05-26T08:06:57.549Z,995.14
2018-05-26T08:07:57.652Z,995.10
2018-05-26T08:08:57.761Z,995.09
2018-05-26T08:09:57.828Z,995.12
2018-05-26T08:10:57.997Z,995.09
2018-05-26T08:11:58.095Z,995.17
2018-05-26T08:12:58.309Z,995.13
2018-05-26T08:13:58.413Z,995.14
2018-05-26T08:14:58.424Z,995.15
2018-05-26T08:15:58.637Z,995.13
2018-05-26T08:16:58.708Z,995.15
2018-05-26T08:17:58.848Z,995.15
2018-05-26T08:18:58.996Z,995.14
2018-05-26T08:19:59.201Z,995.12
2018-05-26T08:20:59.278Z,995.12
2018-05-26T08:21:59.294Z,995.11
2018-05-26T08:22:59.556Z,995.11
2018-05-26T08:23:59.568Z,995.15
2018-05-26T08:24:59.722Z,995.16
2018-05-26T08:25:59.865Z,995.16
2018-05-26T08:27:00.009Z,995.17
2018-05-26T08:28:00.154Z,995.16
2018-05-26T08:29:00.293Z,995.15
2018-05-26T08:30:00.460Z,995.16
2018-05-26T08:31:00.604Z,995.20
2018-05-26T08:32:00.784Z,995.20
2018-05-26T08:33:00.920Z,995.20
2018-05-26T08:34:01.101Z,995.22
2018-05-26T08:35:01.249Z,995.23
2018-05-26T08:36:01.425Z,995.25
2018-05-26T08:37:01.568Z,995.24
2018-05-26T08:38:01.745Z,995.23
2018-05-26T08:39:01.952Z,995.22
2018-05-26T08:40:02.066Z,995.21
2018-05-26T08:41:02.169Z,995.23
2018-05-26T08:42:02.206Z,995.23
2018-05-26T08:43:02.391Z,995.22
2018-05-26T08:44:02.533Z,995.25
2018-05-26T08:45:02.670Z,995.22
2018-05-26T08:46:02.820Z,995.27
2018-05-26T08:47:03.032Z,995.22
2018-05-26T08:48:03.057Z,995.21
2018-05-26T08:49:03.250Z,995.22
2018-05-26T08:50:03.461Z,995.27
2018-05-26T08:51:03.571Z,995.24
2018-05-26T08:52:03.592Z,995.21
2018-05-26T08:53:03.737Z,995.29
2018-05-26T08:54:04.001Z,995.20
2018-05-26T08:55:04.107Z,995.27
2018-05-26T08:56:04.217Z,995.26
2018-05-26T08:57:04.410Z,995.32
2018-05-26T08:58:04.404Z,995.30
2018-05-26T08:59:04.652Z,995.33
2018-05-26T09:00:04.764Z,995.33
2018-05-26T09:01:04.892Z,995.27
2018-05-26T09:02:04.904Z,995.36
2018-05-26T09:03:05.083Z,995.34
2018-05-26T09:04:05.249Z,995.30
2018-05-26T09:05:05.386Z,995.31
2018-05-26T09:06:05.616Z,995.35
2018-05-26T09:07:05.724Z,995.36
2018-05-26T09:08:05.852Z,995.37
2018-05-26T09:09:05.868Z,995.39
2018-05-26T09:10:06.011Z,995.36
2018-05-26T09:11:06.159Z,995.32
2018-05-26T09:12:06.378Z,995.32
2018-05-26T09:13:06.479Z,995.33
2018-05-26T09:14:06.588Z,995.30
2018-05-26T09:15:06.699Z,995.29
2018-05-26T09:16:06.734Z,995.24
2018-05-26T09:17:06.941Z,995.23
2018-05-26T09:18:07.023Z,995.21
2018-05-26T09:19:07.041Z,995.22
2018-05-26T09:20:07.250Z,995.20
2018-05-26T09:21:07.264Z,995.21
2018-05-26T09:22:07.409Z,995.23
2018-05-26T09:23:07.572Z,995.24
2018-05-26T09:24:07.737Z,995.32
2018-05-26T09:25:08.830Z,995.32
2018-05-26T09:26:08.115Z,995.29
2018-05-26T09:27:08.231Z,995.25
2018-05-26T09:28:08.286Z,995.27
2018-05-26T09:29:08.535Z,995.28
2018-05-26T09:30:08.550Z,995.32
2018-05-26T09:31:08.703Z,995.30
2018-05-26T09:32:08.962Z,995.30
2018-05-26T09:33:09.728Z,995.31
2018-05-26T09:34:09.107Z,995.36
2018-05-26T09:35:09.249Z,995.37
2018-05-26T09:36:09.383Z,995.35
2018-05-26T09:37:09.535Z,995.39
2018-05-26T09:38:09.672Z,995.39
2018-05-26T09:39:09.813Z,995.41
2018-05-26T09:40:09.968Z,995.46
2018-05-26T09:41:10.149Z,995.41
2018-05-26T09:42:10.358Z,995.37
2018-05-26T09:43:10.505Z,995.39
2018-05-26T09:44:10.579Z,995.45
2018-05-26T09:45:10.595Z,995.42
2018-05-26T09:46:10.801Z,995.42
2018-05-26T09:47:10.905Z,995.41
2018-05-26T09:48:10.925Z,995.37
2018-05-26T09:49:11.070Z,995.35
2018-05-26T09:50:11.231Z,995.38
2018-05-26T09:51:11.444Z,995.36
2018-05-26T09:52:11.472Z,995.40
2018-05-26T09:53:11.599Z,995.41
2018-05-26T09:54:11.772Z,995.42
2018-05-26T09:55:11.912Z,995.36
2018-05-26T09:56:12.062Z,995.42
2018-05-26T09:57:12.216Z,995.37
2018-05-26T09:58:12.364Z,995.38
2018-05-26T09:59:12.502Z,995.35
2018-05-26T10:00:12.650Z,995.33
2018-05-26T10:01:12.794Z,995.39
2018-05-26T10:02:13.053Z,995.35
2018-05-26T10:03:13.081Z,995.35
2018-05-26T10:04:13.247Z,995.34
2018-05-26T10:05:13.481Z,995.37
2018-05-26T10:06:13.590Z,995.38
2018-05-26T10:07:13.615Z,995.36
2018-05-26T10:08:13.832Z,995.43
2018-05-26T10:09:13.842Z,995.36
2018-05-26T10:10:13.977Z,995.40
2018-05-26T10:11:14.138Z,995.40
2018-05-26T10:12:14.268Z,995.38
2018-05-26T10:13:14.434Z,995.41
2018-05-26T10:14:14.561Z,995.34
2018-05-26T10:15:14.704Z,995.31
2018-05-26T10:16:14.901Z,995.29
2018-05-26T10:17:15.041Z,995.33
2018-05-26T10:18:15.184Z,995.34
2018-05-26T10:19:15.328Z,995.33
2018-05-26T10:20:15.488Z,995.30
2018-05-26T10:21:15.635Z,995.32
2018-05-26T10:22:15.775Z,995.30
2018-05-26T10:23:15.941Z,995.37
2018-05-26T10:24:16.086Z,995.28
2018-05-26T10:25:16.243Z,995.29
2018-05-26T10:26:16.434Z,995.26
2018-05-26T10:27:16.550Z,995.25
2018-05-26T10:28:16.693Z,995.23
2018-05-26T10:29:16.835Z,995.28
2018-05-26T10:30:16.998Z,995.21
2018-05-26T10:31:17.143Z,995.22
2018-05-26T10:32:17.346Z,995.27
2018-05-26T10:33:17.432Z,995.24
2018-05-26T10:34:17.632Z,995.25
2018-05-26T10:35:17.739Z,995.23
2018-05-26T10:36:17.885Z,995.13
2018-05-26T10:37:18.041Z,995.20
2018-05-26T10:38:18.184Z,995.24
2018-05-26T10:39:18.319Z,995.27
2018-05-26T10:40:18.459Z,995.21
2018-05-26T10:41:18.650Z,995.20
2018-05-26T10:42:18.784Z,995.19
2018-05-26T10:43:18.928Z,995.19
2018-05-26T10:44:19.185Z,995.18
2018-05-26T10:45:19.193Z,995.21
2018-05-26T10:46:19.335Z,995.23
2018-05-26T10:47:19.515Z,995.20
2018-05-26T10:48:19.659Z,995.24
2018-05-26T10:49:19.801Z,995.24
2018-05-26T10:50:19.941Z,995.18
2018-05-26T10:51:20.078Z,995.22
2018-05-26T10:52:20.214Z,995.28
2018-05-26T10:53:20.362Z,995.21
2018-05-26T10:54:20.513Z,995.27
2018-05-26T10:55:20.658Z,995.23
2018-05-26T10:56:20.799Z,995.30
2018-05-26T10:57:20.944Z,995.32
2018-05-26T10:58:21.080Z,995.33
2018-05-26T10:59:21.226Z,995.31
2018-05-26T11:00:21.366Z,995.30
2018-05-26T11:01:21.510Z,995.30
2018-05-26T11:02:21.652Z,995.24
2018-05-26T11:03:21.804Z,995.28
2018-05-26T11:04:21.960Z,995.26
2018-05-26T11:05:22.094Z,995.22
2018-05-26T11:06:22.238Z,995.22
2018-05-26T11:07:22.381Z,995.22
2018-05-26T11:08:22.524Z,995.21
2018-05-26T11:09:22.669Z,995.23
2018-05-26T11:10:22.823Z,995.22
2018-05-26T11:11:22.968Z,995.21
2018-05-26T11:12:23.108Z,995.20
2018-05-26T11:13:23.299Z,995.21
2018-05-26T11:14:23.397Z,995.20
2018-05-26T11:15:23.543Z,995.22
2018-05-26T11:16:23.861Z,995.22
2018-05-26T11:17:23.836Z,995.19
2018-05-26T11:18:23.980Z,995.18
2018-05-26T11:19:24.133Z,995.23
2018-05-26T11:20:24.275Z,995.23
2018-05-26T11:21:24.425Z,995.24
2018-05-26T11:22:24.566Z,995.22
2018-05-26T11:23:24.751Z,995.19
2018-05-26T11:24:24.894Z,995.17
2018-05-26T11:25:25.023Z,995.16
2018-05-26T11:26:25.154Z,995.21
2018-05-26T11:27:25.299Z,995.17
2018-05-26T11:28:25.441Z,995.17
2018-05-26T11:29:25.596Z,995.14
2018-05-26T11:30:25.765Z,995.11
2018-05-26T11:31:25.899Z,995.08
2018-05-26T11:32:26.042Z,995.07
2018-05-26T11:33:26.245Z,995.06
2018-05-26T11:34:26.400Z,995.05
2018-05-26T11:35:26.537Z,995.09
2018-05-26T11:36:26.679Z,995.06
2018-05-26T11:37:26.841Z,995.07
2018-05-26T11:38:26.980Z,995.04
2018-05-26T11:39:27.135Z,995.08
2018-05-26T11:40:27.292Z,995.05
2018-05-26T11:41:27.456Z,995.06
2018-05-26T11:42:27.611Z,995.04
2018-05-26T11:43:27.751Z,995.06
2018-05-26T11:44:27.920Z,995.05
2018-05-26T11:45:28.118Z,995.03
2018-05-26T11:46:28.159Z,995.01
2018-05-26T11:47:28.306Z,995.00
2018-05-26T11:48:28.484Z,995.00
2018-05-26T11:49:28.633Z,995.01
2018-05-26T11:50:28.777Z,995.04
2018-05-26T11:51:28.915Z,995.09
2018-05-26T11:52:29.056Z,995.04
2018-05-26T11:53:29.196Z,995.00
2018-05-26T11:54:29.346Z,994.95
2018-05-26T11:55:29.486Z,995.02
2018-05-26T11:56:29.640Z,995.02
2018-05-26T11:57:29.783Z,994.99
2018-05-26T11:58:29.930Z,995.01
2018-05-26T11:59:30.078Z,995.00
2018-05-26T12:00:30.213Z,994.97
2018-05-26T12:01:30.353Z,995.00
2018-05-26T12:02:30.510Z,995.03
2018-05-26T12:03:30.652Z,995.04
2018-05-26T12:04:30.808Z,995.01
2018-05-26T12:05:30.955Z,994.98
2018-05-26T12:06:31.103Z,994.99
2018-05-26T12:07:31.252Z,995.04
2018-05-26T12:08:31.401Z,995.04
2018-05-26T12:09:31.540Z,995.03
2018-05-26T12:10:31.690Z,994.97
2018-05-26T12:11:31.837Z,994.98
2018-05-26T12:12:31.978Z,994.99
2018-05-26T12:13:32.123Z,995.02
2018-05-26T12:14:32.278Z,994.98
2018-05-26T12:15:32.439Z,995.01
2018-05-26T12:16:32.581Z,995.01
2018-05-26T12:17:32.789Z,995.03
2018-05-26T12:18:32.866Z,994.98
2018-05-26T12:19:33.044Z,995.02
2018-05-26T12:20:33.182Z,995.03
2018-05-26T12:21:33.338Z,995.05
2018-05-26T12:22:33.483Z,995.02
2018-05-26T12:23:33.639Z,995.00
2018-05-26T12:24:33.775Z,995.02
2018-05-26T12:25:33.918Z,995.01
2018-05-26T12:26:34.072Z,995.08
2018-05-26T12:27:34.238Z,995.06
2018-05-26T12:28:34.377Z,995.02
2018-05-26T12:29:34.519Z,995.07
2018-05-26T12:30:34.685Z,995.05
2018-05-26T12:31:34.826Z,995.02